sensor_id;sensor_type;location;lat;lon;timestamp;temperature;humidity
25436;DHT22;13363;52.772;-3.890;2023-07-20T00:02:00;13.30;99.90
25436;DHT22;13363;52.772;-3.890;2023-07-20T00:04:25;13.30;99.90
25436;DHT22;13363;52.772;-3.890;2023-07-20T00:06:51;13.30;99.90
25436;DHT22;13363;52.772;-3.890;2023-07-20T00:09:17;13.30;99.90
25436;DHT22;13363;52.772;-3.890;2023-07-20T00:11:49;13.30;99.90
25436;DHT22;13363;52.772;-3.890;2023-07-20T00:14:16;13.40;99.90
25436;DHT22;13363;52.772;-3.890;2023-07-20T00:16:42;13.40;99.90
25436;DHT22;13363;52.772;-3.890;2023-07-20T00:19:08;13.40;99.90
25436;DHT22;13363;52.772;-3.890;2023-07-20T00:21:36;13.30;99.90
25436;DHT22;13363;52.772;-3.890;2023-07-20T00:24:02;13.30;99.90
25436;DHT22;13363;52.772;-3.890;2023-07-20T00:26:28;13.40;99.90
25436;DHT22;13363;52.772;-3.890;2023-07-20T00:28:53;13.40;99.90
25436;DHT22;13363;52.772;-3.890;2023-07-20T00:31:19;13.40;99.90
25436;DHT22;13363;52.772;-3.890;2023-07-20T00:33:45;13.30;99.90
25436;DHT22;13363;52.772;-3.890;2023-07-20T00:36:11;13.30;99.90
25436;DHT22;13363;52.772;-3.890;2023-07-20T00:38:37;13.30;99.90
25436;DHT22;13363;52.772;-3.890;2023-07-20T00:41:03;13.30;99.90
25436;DHT22;13363;52.772;-3.890;2023-07-20T00:43:28;13.30;99.90
25436;DHT22;13363;52.772;-3.890;2023-07-20T00:45:55;13.30;99.90
25436;DHT22;13363;52.772;-3.890;2023-07-20T00:48:21;13.30;99.90
25436;DHT22;13363;52.772;-3.890;2023-07-20T00:50:47;13.30;99.90
25436;DHT22;13363;52.772;-3.890;2023-07-20T00:53:15;13.30;99.90
25436;DHT22;13363;52.772;-3.890;2023-07-20T00:55:41;13.30;99.90
25436;DHT22;13363;52.772;-3.890;2023-07-20T00:58:07;13.20;99.90
25436;DHT22;13363;52.772;-3.890;2023-07-20T01:00:33;13.20;99.90
25436;DHT22;13363;52.772;-3.890;2023-07-20T01:02:59;13.30;99.90
25436;DHT22;13363;52.772;-3.890;2023-07-20T01:05:47;13.30;99.90
25436;DHT22;13363;52.772;-3.890;2023-07-20T01:08:50;13.30;99.90
25436;DHT22;13363;52.772;-3.890;2023-07-20T01:11:39;13.30;99.90
25436;DHT22;13363;52.772;-3.890;2023-07-20T01:14:09;13.30;99.90
25436;DHT22;13363;52.772;-3.890;2023-07-20T01:16:36;13.30;99.90
25436;DHT22;13363;52.772;-3.890;2023-07-20T01:19:01;13.30;99.90
25436;DHT22;13363;52.772;-3.890;2023-07-20T01:21:34;13.30;99.90
25436;DHT22;13363;52.772;-3.890;2023-07-20T01:27:20;13.30;99.90
25436;DHT22;13363;52.772;-3.890;2023-07-20T01:30:22;13.30;99.90
25436;DHT22;13363;52.772;-3.890;2023-07-20T01:32:54;13.20;99.90
25436;DHT22;13363;52.772;-3.890;2023-07-20T01:35:24;13.20;99.90
25436;DHT22;13363;52.772;-3.890;2023-07-20T01:37:52;13.20;99.90
25436;DHT22;13363;52.772;-3.890;2023-07-20T01:40:20;13.20;99.90
25436;DHT22;13363;52.772;-3.890;2023-07-20T01:42:47;13.20;99.90
25436;DHT22;13363;52.772;-3.890;2023-07-20T01:45:14;13.20;99.90
25436;DHT22;13363;52.772;-3.890;2023-07-20T01:47:40;13.20;99.90
25436;DHT22;13363;52.772;-3.890;2023-07-20T01:50:06;13.10;99.90
25436;DHT22;13363;52.772;-3.890;2023-07-20T01:52:32;13.10;99.90
25436;DHT22;13363;52.772;-3.890;2023-07-20T01:54:58;13.10;99.90
25436;DHT22;13363;52.772;-3.890;2023-07-20T01:59:50;13.10;99.90
25436;DHT22;13363;52.772;-3.890;2023-07-20T02:02:16;13.10;99.90
25436;DHT22;13363;52.772;-3.890;2023-07-20T02:04:42;13.10;99.90
25436;DHT22;13363;52.772;-3.890;2023-07-20T02:07:08;13.00;99.90
25436;DHT22;13363;52.772;-3.890;2023-07-20T02:09:34;13.00;99.90
25436;DHT22;13363;52.772;-3.890;2023-07-20T02:11:59;13.00;99.90
25436;DHT22;13363;52.772;-3.890;2023-07-20T02:14:25;13.00;99.90
25436;DHT22;13363;52.772;-3.890;2023-07-20T02:16:51;13.00;99.90
25436;DHT22;13363;52.772;-3.890;2023-07-20T02:19:18;13.00;99.90
25436;DHT22;13363;52.772;-3.890;2023-07-20T02:21:44;13.00;99.90
25436;DHT22;13363;52.772;-3.890;2023-07-20T02:24:11;13.00;99.90
25436;DHT22;13363;52.772;-3.890;2023-07-20T02:26:37;13.00;99.90
25436;DHT22;13363;52.772;-3.890;2023-07-20T02:29:03;13.00;99.90
25436;DHT22;13363;52.772;-3.890;2023-07-20T02:31:30;13.00;99.90
25436;DHT22;13363;52.772;-3.890;2023-07-20T02:33:56;12.90;99.90
25436;DHT22;13363;52.772;-3.890;2023-07-20T02:36:22;13.00;99.90
25436;DHT22;13363;52.772;-3.890;2023-07-20T02:38:48;12.90;99.90
25436;DHT22;13363;52.772;-3.890;2023-07-20T02:41:14;12.90;99.90
25436;DHT22;13363;52.772;-3.890;2023-07-20T02:43:40;12.90;99.90
25436;DHT22;13363;52.772;-3.890;2023-07-20T02:46:05;12.90;99.90
25436;DHT22;13363;52.772;-3.890;2023-07-20T02:48:31;12.90;99.90
25436;DHT22;13363;52.772;-3.890;2023-07-20T02:50:57;12.90;99.90
25436;DHT22;13363;52.772;-3.890;2023-07-20T02:55:49;12.90;99.90
25436;DHT22;13363;52.772;-3.890;2023-07-20T02:58:15;12.90;99.90
25436;DHT22;13363;52.772;-3.890;2023-07-20T03:00:43;12.90;99.90
25436;DHT22;13363;52.772;-3.890;2023-07-20T03:03:09;12.90;99.90
25436;DHT22;13363;52.772;-3.890;2023-07-20T03:05:36;12.90;99.90
25436;DHT22;13363;52.772;-3.890;2023-07-20T03:08:05;12.80;99.90
25436;DHT22;13363;52.772;-3.890;2023-07-20T03:10:32;12.80;99.90
25436;DHT22;13363;52.772;-3.890;2023-07-20T03:12:58;12.80;99.90
25436;DHT22;13363;52.772;-3.890;2023-07-20T03:15:24;12.70;99.90
25436;DHT22;13363;52.772;-3.890;2023-07-20T03:17:50;12.70;99.90
25436;DHT22;13363;52.772;-3.890;2023-07-20T03:20:17;12.70;99.90
25436;DHT22;13363;52.772;-3.890;2023-07-20T03:22:43;12.70;99.90
25436;DHT22;13363;52.772;-3.890;2023-07-20T03:25:09;12.70;99.90
25436;DHT22;13363;52.772;-3.890;2023-07-20T03:27:35;12.60;99.90
25436;DHT22;13363;52.772;-3.890;2023-07-20T03:30:01;12.60;99.90
25436;DHT22;13363;52.772;-3.890;2023-07-20T03:32:27;12.50;99.90
25436;DHT22;13363;52.772;-3.890;2023-07-20T03:34:52;12.50;99.90
25436;DHT22;13363;52.772;-3.890;2023-07-20T03:37:18;12.50;99.90
25436;DHT22;13363;52.772;-3.890;2023-07-20T03:39:44;12.50;99.90
25436;DHT22;13363;52.772;-3.890;2023-07-20T03:42:10;12.50;99.90
25436;DHT22;13363;52.772;-3.890;2023-07-20T03:44:36;12.40;99.90
25436;DHT22;13363;52.772;-3.890;2023-07-20T03:47:02;12.40;99.90
25436;DHT22;13363;52.772;-3.890;2023-07-20T03:49:29;12.40;99.90
25436;DHT22;13363;52.772;-3.890;2023-07-20T03:51:55;12.30;99.90
25436;DHT22;13363;52.772;-3.890;2023-07-20T03:54:21;12.40;99.90
25436;DHT22;13363;52.772;-3.890;2023-07-20T03:56:47;12.30;99.90
25436;DHT22;13363;52.772;-3.890;2023-07-20T03:59:13;12.30;99.90
25436;DHT22;13363;52.772;-3.890;2023-07-20T04:01:38;12.30;99.90
25436;DHT22;13363;52.772;-3.890;2023-07-20T04:04:06;12.30;99.90
25436;DHT22;13363;52.772;-3.890;2023-07-20T04:06:33;12.30;99.90
25436;DHT22;13363;52.772;-3.890;2023-07-20T04:08:59;12.30;99.90
25436;DHT22;13363;52.772;-3.890;2023-07-20T04:11:25;12.30;99.90
25436;DHT22;13363;52.772;-3.890;2023-07-20T04:13:51;12.30;99.90
25436;DHT22;13363;52.772;-3.890;2023-07-20T04:16:17;12.20;99.90
25436;DHT22;13363;52.772;-3.890;2023-07-20T04:18:42;12.30;99.90
25436;DHT22;13363;52.772;-3.890;2023-07-20T04:21:08;12.20;99.90
25436;DHT22;13363;52.772;-3.890;2023-07-20T04:23:34;12.30;99.90
25436;DHT22;13363;52.772;-3.890;2023-07-20T04:26:01;12.30;99.90
25436;DHT22;13363;52.772;-3.890;2023-07-20T04:30:53;12.40;99.90
25436;DHT22;13363;52.772;-3.890;2023-07-20T04:33:19;12.30;99.90
25436;DHT22;13363;52.772;-3.890;2023-07-20T04:35:50;12.40;99.90
25436;DHT22;13363;52.772;-3.890;2023-07-20T04:38:16;12.40;99.90
25436;DHT22;13363;52.772;-3.890;2023-07-20T04:40:47;12.40;99.90
25436;DHT22;13363;52.772;-3.890;2023-07-20T04:43:16;12.50;99.90
25436;DHT22;13363;52.772;-3.890;2023-07-20T04:45:42;12.50;99.90
25436;DHT22;13363;52.772;-3.890;2023-07-20T04:48:10;12.50;99.90
25436;DHT22;13363;52.772;-3.890;2023-07-20T04:50:37;12.50;99.90
25436;DHT22;13363;52.772;-3.890;2023-07-20T04:53:03;12.50;99.90
25436;DHT22;13363;52.772;-3.890;2023-07-20T04:55:29;12.60;99.90
25436;DHT22;13363;52.772;-3.890;2023-07-20T04:57:55;12.60;99.90
25436;DHT22;13363;52.772;-3.890;2023-07-20T05:00:21;12.70;99.90
25436;DHT22;13363;52.772;-3.890;2023-07-20T05:02:47;12.70;99.90
25436;DHT22;13363;52.772;-3.890;2023-07-20T05:05:16;12.70;99.90
25436;DHT22;13363;52.772;-3.890;2023-07-20T05:10:08;12.80;99.90
25436;DHT22;13363;52.772;-3.890;2023-07-20T05:12:33;12.80;99.90
25436;DHT22;13363;52.772;-3.890;2023-07-20T05:14:59;12.80;99.90
25436;DHT22;13363;52.772;-3.890;2023-07-20T05:17:25;12.80;99.90
25436;DHT22;13363;52.772;-3.890;2023-07-20T05:19:51;12.90;99.90
25436;DHT22;13363;52.772;-3.890;2023-07-20T05:22:17;12.90;99.90
25436;DHT22;13363;52.772;-3.890;2023-07-20T05:24:42;13.00;99.90
25436;DHT22;13363;52.772;-3.890;2023-07-20T05:27:09;13.10;99.90
25436;DHT22;13363;52.772;-3.890;2023-07-20T05:29:34;13.00;99.90
25436;DHT22;13363;52.772;-3.890;2023-07-20T05:32:00;13.00;99.90
25436;DHT22;13363;52.772;-3.890;2023-07-20T05:34:26;13.10;99.90
25436;DHT22;13363;52.772;-3.890;2023-07-20T05:39:18;13.20;99.90
25436;DHT22;13363;52.772;-3.890;2023-07-20T05:41:44;13.30;99.90
25436;DHT22;13363;52.772;-3.890;2023-07-20T05:44:09;13.30;99.90
25436;DHT22;13363;52.772;-3.890;2023-07-20T05:46:35;13.40;99.90
25436;DHT22;13363;52.772;-3.890;2023-07-20T05:49:01;13.50;99.90
25436;DHT22;13363;52.772;-3.890;2023-07-20T05:51:28;13.60;99.90
25436;DHT22;13363;52.772;-3.890;2023-07-20T05:53:54;13.60;99.90
25436;DHT22;13363;52.772;-3.890;2023-07-20T05:56:20;13.70;99.90
25436;DHT22;13363;52.772;-3.890;2023-07-20T05:58:46;13.60;99.90
25436;DHT22;13363;52.772;-3.890;2023-07-20T06:01:11;13.70;99.90
25436;DHT22;13363;52.772;-3.890;2023-07-20T06:03:37;13.80;99.90
25436;DHT22;13363;52.772;-3.890;2023-07-20T06:06:03;13.90;99.90
25436;DHT22;13363;52.772;-3.890;2023-07-20T06:08:31;14.00;99.90
25436;DHT22;13363;52.772;-3.890;2023-07-20T06:10:57;14.00;99.90
25436;DHT22;13363;52.772;-3.890;2023-07-20T06:13:23;14.00;99.90
25436;DHT22;13363;52.772;-3.890;2023-07-20T06:15:49;13.90;99.90
25436;DHT22;13363;52.772;-3.890;2023-07-20T06:18:15;14.00;99.90
25436;DHT22;13363;52.772;-3.890;2023-07-20T06:20:41;14.10;99.90
25436;DHT22;13363;52.772;-3.890;2023-07-20T06:23:07;14.20;99.90
25436;DHT22;13363;52.772;-3.890;2023-07-20T06:25:33;14.20;99.90
25436;DHT22;13363;52.772;-3.890;2023-07-20T06:27:58;14.30;99.90
25436;DHT22;13363;52.772;-3.890;2023-07-20T06:30:24;14.40;99.90
25436;DHT22;13363;52.772;-3.890;2023-07-20T06:32:52;14.40;99.90
25436;DHT22;13363;52.772;-3.890;2023-07-20T06:35:18;14.50;99.90
25436;DHT22;13363;52.772;-3.890;2023-07-20T06:37:43;14.60;99.90
25436;DHT22;13363;52.772;-3.890;2023-07-20T06:40:09;14.80;99.90
25436;DHT22;13363;52.772;-3.890;2023-07-20T06:42:35;14.80;99.90
25436;DHT22;13363;52.772;-3.890;2023-07-20T06:45:02;14.90;99.90
25436;DHT22;13363;52.772;-3.890;2023-07-20T06:47:28;14.80;99.90
25436;DHT22;13363;52.772;-3.890;2023-07-20T06:49:54;14.80;99.90
25436;DHT22;13363;52.772;-3.890;2023-07-20T06:52:20;14.60;99.90
25436;DHT22;13363;52.772;-3.890;2023-07-20T06:54:45;14.80;99.90
25436;DHT22;13363;52.772;-3.890;2023-07-20T06:57:11;15.00;99.90
25436;DHT22;13363;52.772;-3.890;2023-07-20T06:59:37;15.30;99.90
25436;DHT22;13363;52.772;-3.890;2023-07-20T07:02:03;15.40;99.90
25436;DHT22;13363;52.772;-3.890;2023-07-20T07:04:29;15.50;99.90
25436;DHT22;13363;52.772;-3.890;2023-07-20T07:06:55;15.60;99.90
25436;DHT22;13363;52.772;-3.890;2023-07-20T07:09:21;15.60;99.90
25436;DHT22;13363;52.772;-3.890;2023-07-20T07:11:46;15.60;99.90
25436;DHT22;13363;52.772;-3.890;2023-07-20T07:14:12;15.70;99.90
25436;DHT22;13363;52.772;-3.890;2023-07-20T07:16:38;15.70;99.90
25436;DHT22;13363;52.772;-3.890;2023-07-20T07:19:04;15.70;99.90
25436;DHT22;13363;52.772;-3.890;2023-07-20T07:21:31;15.60;99.90
25436;DHT22;13363;52.772;-3.890;2023-07-20T07:23:57;15.60;99.90
25436;DHT22;13363;52.772;-3.890;2023-07-20T07:26:24;15.70;99.90
25436;DHT22;13363;52.772;-3.890;2023-07-20T07:28:50;15.80;99.90
25436;DHT22;13363;52.772;-3.890;2023-07-20T07:31:16;15.80;99.90
25436;DHT22;13363;52.772;-3.890;2023-07-20T07:33:42;15.90;99.90
25436;DHT22;13363;52.772;-3.890;2023-07-20T07:36:08;16.00;99.90
25436;DHT22;13363;52.772;-3.890;2023-07-20T07:38:34;16.20;99.90
25436;DHT22;13363;52.772;-3.890;2023-07-20T07:41:00;16.40;99.90
25436;DHT22;13363;52.772;-3.890;2023-07-20T07:43:26;16.60;99.90
25436;DHT22;13363;52.772;-3.890;2023-07-20T07:45:54;16.90;99.90
25436;DHT22;13363;52.772;-3.890;2023-07-20T07:48:20;17.30;99.90
25436;DHT22;13363;52.772;-3.890;2023-07-20T07:50:46;17.60;99.90
25436;DHT22;13363;52.772;-3.890;2023-07-20T07:53:12;17.60;99.90
25436;DHT22;13363;52.772;-3.890;2023-07-20T07:55:38;17.40;99.90
25436;DHT22;13363;52.772;-3.890;2023-07-20T07:58:04;17.40;99.90
25436;DHT22;13363;52.772;-3.890;2023-07-20T08:00:30;17.40;99.90
25436;DHT22;13363;52.772;-3.890;2023-07-20T08:02:56;17.40;99.90
25436;DHT22;13363;52.772;-3.890;2023-07-20T08:05:21;17.50;99.90
25436;DHT22;13363;52.772;-3.890;2023-07-20T08:07:47;17.40;99.90
25436;DHT22;13363;52.772;-3.890;2023-07-20T08:10:13;17.40;99.90
25436;DHT22;13363;52.772;-3.890;2023-07-20T08:13:01;17.60;99.90
25436;DHT22;13363;52.772;-3.890;2023-07-20T08:15:27;17.60;99.90
25436;DHT22;13363;52.772;-3.890;2023-07-20T08:17:52;17.50;99.90
25436;DHT22;13363;52.772;-3.890;2023-07-20T08:20:19;17.40;99.90
25436;DHT22;13363;52.772;-3.890;2023-07-20T08:22:45;17.20;99.90
25436;DHT22;13363;52.772;-3.890;2023-07-20T08:25:10;17.30;99.90
25436;DHT22;13363;52.772;-3.890;2023-07-20T08:27:36;17.30;99.90
25436;DHT22;13363;52.772;-3.890;2023-07-20T08:30:03;17.30;99.90
25436;DHT22;13363;52.772;-3.890;2023-07-20T08:32:30;17.20;99.90
25436;DHT22;13363;52.772;-3.890;2023-07-20T08:34:55;17.10;99.90
25436;DHT22;13363;52.772;-3.890;2023-07-20T08:37:22;17.00;99.90
25436;DHT22;13363;52.772;-3.890;2023-07-20T08:39:48;17.00;99.90
25436;DHT22;13363;52.772;-3.890;2023-07-20T08:42:15;17.00;99.90
25436;DHT22;13363;52.772;-3.890;2023-07-20T08:44:42;17.00;99.90
25436;DHT22;13363;52.772;-3.890;2023-07-20T08:47:10;17.00;99.90
25436;DHT22;13363;52.772;-3.890;2023-07-20T08:49:39;17.00;99.90
25436;DHT22;13363;52.772;-3.890;2023-07-20T08:52:06;16.90;99.90
25436;DHT22;13363;52.772;-3.890;2023-07-20T08:54:32;16.80;99.90
25436;DHT22;13363;52.772;-3.890;2023-07-20T08:57:02;16.80;99.90
25436;DHT22;13363;52.772;-3.890;2023-07-20T08:59:29;16.80;99.90
25436;DHT22;13363;52.772;-3.890;2023-07-20T09:01:57;16.80;99.90
25436;DHT22;13363;52.772;-3.890;2023-07-20T09:04:23;16.80;99.90
25436;DHT22;13363;52.772;-3.890;2023-07-20T09:06:50;16.80;99.90
25436;DHT22;13363;52.772;-3.890;2023-07-20T09:09:16;16.70;99.90
25436;DHT22;13363;52.772;-3.890;2023-07-20T09:11:42;16.60;99.90
25436;DHT22;13363;52.772;-3.890;2023-07-20T09:14:09;16.60;99.90
25436;DHT22;13363;52.772;-3.890;2023-07-20T09:16:47;16.60;99.90
25436;DHT22;13363;52.772;-3.890;2023-07-20T09:19:17;16.50;99.90
25436;DHT22;13363;52.772;-3.890;2023-07-20T09:21:50;16.60;99.90
25436;DHT22;13363;52.772;-3.890;2023-07-20T09:24:18;16.70;99.90
25436;DHT22;13363;52.772;-3.890;2023-07-20T09:26:45;16.80;99.90
25436;DHT22;13363;52.772;-3.890;2023-07-20T09:29:13;16.90;99.90
25436;DHT22;13363;52.772;-3.890;2023-07-20T09:31:39;16.80;99.90
25436;DHT22;13363;52.772;-3.890;2023-07-20T09:34:08;16.80;99.90
25436;DHT22;13363;52.772;-3.890;2023-07-20T09:36:35;16.80;99.90
25436;DHT22;13363;52.772;-3.890;2023-07-20T09:39:03;16.80;99.90
25436;DHT22;13363;52.772;-3.890;2023-07-20T09:41:30;16.90;99.90
25436;DHT22;13363;52.772;-3.890;2023-07-20T09:44:04;17.10;99.90
25436;DHT22;13363;52.772;-3.890;2023-07-20T09:46:45;17.30;99.90
25436;DHT22;13363;52.772;-3.890;2023-07-20T09:49:11;17.60;99.90
25436;DHT22;13363;52.772;-3.890;2023-07-20T09:51:37;17.60;99.90
25436;DHT22;13363;52.772;-3.890;2023-07-20T09:54:05;17.70;99.90
25436;DHT22;13363;52.772;-3.890;2023-07-20T09:56:31;17.60;99.90
25436;DHT22;13363;52.772;-3.890;2023-07-20T09:58:58;17.70;99.90
25436;DHT22;13363;52.772;-3.890;2023-07-20T10:01:26;17.80;99.90
25436;DHT22;13363;52.772;-3.890;2023-07-20T10:03:54;17.90;99.90
25436;DHT22;13363;52.772;-3.890;2023-07-20T10:06:24;17.90;99.90
25436;DHT22;13363;52.772;-3.890;2023-07-20T10:08:53;17.80;99.90
25436;DHT22;13363;52.772;-3.890;2023-07-20T10:11:23;17.80;99.90
25436;DHT22;13363;52.772;-3.890;2023-07-20T10:13:53;17.50;99.90
25436;DHT22;13363;52.772;-3.890;2023-07-20T10:16:26;17.50;99.90
25436;DHT22;13363;52.772;-3.890;2023-07-20T10:19:05;17.40;99.90
25436;DHT22;13363;52.772;-3.890;2023-07-20T10:21:35;17.50;99.90
25436;DHT22;13363;52.772;-3.890;2023-07-20T10:24:03;17.40;99.90
25436;DHT22;13363;52.772;-3.890;2023-07-20T10:26:29;17.70;99.90
25436;DHT22;13363;52.772;-3.890;2023-07-20T10:28:56;18.00;99.90
25436;DHT22;13363;52.772;-3.890;2023-07-20T10:31:23;18.30;99.90
25436;DHT22;13363;52.772;-3.890;2023-07-20T10:33:49;18.70;99.90
25436;DHT22;13363;52.772;-3.890;2023-07-20T10:36:16;19.20;99.90
25436;DHT22;13363;52.772;-3.890;2023-07-20T10:38:54;19.40;99.90
25436;DHT22;13363;52.772;-3.890;2023-07-20T10:41:22;19.60;99.90
25436;DHT22;13363;52.772;-3.890;2023-07-20T10:43:50;20.00;99.90
25436;DHT22;13363;52.772;-3.890;2023-07-20T10:49:07;20.80;99.90
25436;DHT22;13363;52.772;-3.890;2023-07-20T10:51:46;20.10;99.90
25436;DHT22;13363;52.772;-3.890;2023-07-20T10:56:43;19.20;99.90
25436;DHT22;13363;52.772;-3.890;2023-07-20T11:01:49;20.10;99.90
25436;DHT22;13363;52.772;-3.890;2023-07-20T11:04:15;20.50;99.90
25436;DHT22;13363;52.772;-3.890;2023-07-20T11:06:45;20.70;99.90
25436;DHT22;13363;52.772;-3.890;2023-07-20T11:09:14;20.20;99.90
25436;DHT22;13363;52.772;-3.890;2023-07-20T11:11:42;20.20;99.90
25436;DHT22;13363;52.772;-3.890;2023-07-20T11:14:22;20.20;99.90
25436;DHT22;13363;52.772;-3.890;2023-07-20T11:16:50;20.60;99.90
25436;DHT22;13363;52.772;-3.890;2023-07-20T11:19:25;20.90;99.90
25436;DHT22;13363;52.772;-3.890;2023-07-20T11:21:58;21.00;99.90
25436;DHT22;13363;52.772;-3.890;2023-07-20T11:24:24;20.80;99.90
25436;DHT22;13363;52.772;-3.890;2023-07-20T11:26:54;20.30;99.90
25436;DHT22;13363;52.772;-3.890;2023-07-20T11:29:21;20.20;99.90
25436;DHT22;13363;52.772;-3.890;2023-07-20T11:31:48;19.80;99.90
25436;DHT22;13363;52.772;-3.890;2023-07-20T11:34:17;19.90;99.90
25436;DHT22;13363;52.772;-3.890;2023-07-20T11:39:19;19.70;99.90
25436;DHT22;13363;52.772;-3.890;2023-07-20T11:41:51;19.40;99.90
25436;DHT22;13363;52.772;-3.890;2023-07-20T11:44:18;19.70;99.90
25436;DHT22;13363;52.772;-3.890;2023-07-20T11:46:44;20.10;99.90
25436;DHT22;13363;52.772;-3.890;2023-07-20T11:49:11;20.10;99.90
25436;DHT22;13363;52.772;-3.890;2023-07-20T11:51:39;20.30;99.90
25436;DHT22;13363;52.772;-3.890;2023-07-20T11:54:07;20.20;99.90
25436;DHT22;13363;52.772;-3.890;2023-07-20T11:56:33;20.10;99.90
25436;DHT22;13363;52.772;-3.890;2023-07-20T11:58:59;20.00;99.90
25436;DHT22;13363;52.772;-3.890;2023-07-20T12:01:27;20.30;99.90
25436;DHT22;13363;52.772;-3.890;2023-07-20T12:03:59;20.50;99.90
25436;DHT22;13363;52.772;-3.890;2023-07-20T12:06:27;20.80;99.90
25436;DHT22;13363;52.772;-3.890;2023-07-20T12:08:57;21.00;99.90
25436;DHT22;13363;52.772;-3.890;2023-07-20T12:11:31;21.50;99.90
25436;DHT22;13363;52.772;-3.890;2023-07-20T12:13:58;21.50;99.90
25436;DHT22;13363;52.772;-3.890;2023-07-20T12:16:27;20.90;99.90
25436;DHT22;13363;52.772;-3.890;2023-07-20T12:21:26;20.60;99.90
25436;DHT22;13363;52.772;-3.890;2023-07-20T12:23:52;21.00;99.90
25436;DHT22;13363;52.772;-3.890;2023-07-20T12:26:20;21.50;99.90
25436;DHT22;13363;52.772;-3.890;2023-07-20T12:28:47;21.60;99.90
25436;DHT22;13363;52.772;-3.890;2023-07-20T12:31:14;20.70;99.90
25436;DHT22;13363;52.772;-3.890;2023-07-20T12:33:40;20.50;99.90
25436;DHT22;13363;52.772;-3.890;2023-07-20T12:36:06;21.00;99.90
25436;DHT22;13363;52.772;-3.890;2023-07-20T12:38:32;21.30;99.90
25436;DHT22;13363;52.772;-3.890;2023-07-20T12:40:58;21.60;99.90
25436;DHT22;13363;52.772;-3.890;2023-07-20T12:43:25;22.20;99.90
25436;DHT22;13363;52.772;-3.890;2023-07-20T12:45:51;22.20;99.90
25436;DHT22;13363;52.772;-3.890;2023-07-20T12:48:17;22.30;99.90
25436;DHT22;13363;52.772;-3.890;2023-07-20T12:50:43;22.40;99.90
25436;DHT22;13363;52.772;-3.890;2023-07-20T12:53:09;22.30;99.90
25436;DHT22;13363;52.772;-3.890;2023-07-20T12:55:34;22.20;99.90
25436;DHT22;13363;52.772;-3.890;2023-07-20T12:58:00;22.30;99.90
25436;DHT22;13363;52.772;-3.890;2023-07-20T13:00:26;22.50;99.90
25436;DHT22;13363;52.772;-3.890;2023-07-20T13:02:52;22.50;99.90
25436;DHT22;13363;52.772;-3.890;2023-07-20T13:05:18;22.40;99.90
25436;DHT22;13363;52.772;-3.890;2023-07-20T13:07:44;22.20;99.90
25436;DHT22;13363;52.772;-3.890;2023-07-20T13:10:11;21.50;99.90
25436;DHT22;13363;52.772;-3.890;2023-07-20T13:12:37;21.30;99.90
25436;DHT22;13363;52.772;-3.890;2023-07-20T13:15:05;21.80;99.90
25436;DHT22;13363;52.772;-3.890;2023-07-20T13:17:34;21.80;99.90
25436;DHT22;13363;52.772;-3.890;2023-07-20T13:20:01;21.80;99.90
25436;DHT22;13363;52.772;-3.890;2023-07-20T13:22:30;21.60;99.90
25436;DHT22;13363;52.772;-3.890;2023-07-20T13:24:56;22.00;99.90
25436;DHT22;13363;52.772;-3.890;2023-07-20T13:27:22;21.80;99.90
25436;DHT22;13363;52.772;-3.890;2023-07-20T13:29:48;21.50;99.90
25436;DHT22;13363;52.772;-3.890;2023-07-20T13:32:14;21.80;99.90
25436;DHT22;13363;52.772;-3.890;2023-07-20T13:34:41;21.70;99.90
25436;DHT22;13363;52.772;-3.890;2023-07-20T13:37:08;21.60;99.90
25436;DHT22;13363;52.772;-3.890;2023-07-20T13:39:34;20.80;99.90
25436;DHT22;13363;52.772;-3.890;2023-07-20T13:42:00;20.70;99.90
25436;DHT22;13363;52.772;-3.890;2023-07-20T13:44:29;20.80;99.90
25436;DHT22;13363;52.772;-3.890;2023-07-20T13:46:55;21.20;99.90
25436;DHT22;13363;52.772;-3.890;2023-07-20T13:49:21;21.40;99.90
25436;DHT22;13363;52.772;-3.890;2023-07-20T13:51:46;21.00;99.90
25436;DHT22;13363;52.772;-3.890;2023-07-20T13:54:16;21.10;99.90
25436;DHT22;13363;52.772;-3.890;2023-07-20T13:56:44;21.40;99.90
25436;DHT22;13363;52.772;-3.890;2023-07-20T13:59:10;21.90;99.90
25436;DHT22;13363;52.772;-3.890;2023-07-20T14:01:36;21.50;99.90
25436;DHT22;13363;52.772;-3.890;2023-07-20T14:04:02;21.80;99.90
25436;DHT22;13363;52.772;-3.890;2023-07-20T14:06:30;22.10;99.90
25436;DHT22;13363;52.772;-3.890;2023-07-20T14:08:57;22.10;99.90
25436;DHT22;13363;52.772;-3.890;2023-07-20T14:11:23;22.00;99.90
25436;DHT22;13363;52.772;-3.890;2023-07-20T14:13:53;22.10;99.90
25436;DHT22;13363;52.772;-3.890;2023-07-20T14:16:20;21.80;99.90
25436;DHT22;13363;52.772;-3.890;2023-07-20T14:18:46;21.50;99.90
25436;DHT22;13363;52.772;-3.890;2023-07-20T14:21:17;21.20;99.90
25436;DHT22;13363;52.772;-3.890;2023-07-20T14:23:51;21.40;99.90
25436;DHT22;13363;52.772;-3.890;2023-07-20T14:26:17;21.30;99.90
25436;DHT22;13363;52.772;-3.890;2023-07-20T14:28:43;21.50;99.90
25436;DHT22;13363;52.772;-3.890;2023-07-20T14:31:09;21.90;99.90
25436;DHT22;13363;52.772;-3.890;2023-07-20T14:33:35;22.00;99.90
25436;DHT22;13363;52.772;-3.890;2023-07-20T14:36:02;22.20;99.90
25436;DHT22;13363;52.772;-3.890;2023-07-20T14:38:30;21.40;99.90
25436;DHT22;13363;52.772;-3.890;2023-07-20T14:41:01;21.40;99.90
25436;DHT22;13363;52.772;-3.890;2023-07-20T14:43:27;21.70;99.90
25436;DHT22;13363;52.772;-3.890;2023-07-20T14:45:53;22.10;99.90
25436;DHT22;13363;52.772;-3.890;2023-07-20T14:48:20;22.30;99.90
25436;DHT22;13363;52.772;-3.890;2023-07-20T14:50:46;22.20;99.90
25436;DHT22;13363;52.772;-3.890;2023-07-20T14:53:15;21.90;99.90
25436;DHT22;13363;52.772;-3.890;2023-07-20T14:55:41;21.00;99.90
25436;DHT22;13363;52.772;-3.890;2023-07-20T14:58:07;20.90;99.90
25436;DHT22;13363;52.772;-3.890;2023-07-20T15:00:33;21.10;99.90
25436;DHT22;13363;52.772;-3.890;2023-07-20T15:03:03;20.90;99.90
25436;DHT22;13363;52.772;-3.890;2023-07-20T15:05:34;20.50;99.90
25436;DHT22;13363;52.772;-3.890;2023-07-20T15:08:04;20.80;99.90
25436;DHT22;13363;52.772;-3.890;2023-07-20T15:10:34;20.70;99.90
25436;DHT22;13363;52.772;-3.890;2023-07-20T15:13:05;20.40;99.90
25436;DHT22;13363;52.772;-3.890;2023-07-20T15:15:37;20.30;99.90
25436;DHT22;13363;52.772;-3.890;2023-07-20T15:18:05;20.50;99.90
25436;DHT22;13363;52.772;-3.890;2023-07-20T15:20:32;20.60;99.90
25436;DHT22;13363;52.772;-3.890;2023-07-20T15:22:58;20.60;99.90
25436;DHT22;13363;52.772;-3.890;2023-07-20T15:25:25;20.70;99.90
25436;DHT22;13363;52.772;-3.890;2023-07-20T15:27:50;20.40;99.90
25436;DHT22;13363;52.772;-3.890;2023-07-20T15:30:17;20.20;99.90
25436;DHT22;13363;52.772;-3.890;2023-07-20T15:32:43;20.20;99.90
25436;DHT22;13363;52.772;-3.890;2023-07-20T15:35:10;20.00;99.90
25436;DHT22;13363;52.772;-3.890;2023-07-20T15:37:37;19.90;99.90
25436;DHT22;13363;52.772;-3.890;2023-07-20T15:40:03;19.70;99.90
25436;DHT22;13363;52.772;-3.890;2023-07-20T15:42:33;19.80;99.90
25436;DHT22;13363;52.772;-3.890;2023-07-20T15:45:00;19.80;99.90